createdAt,value
2019-04-30T00:01:42.116Z,6.57
2019-04-30T00:04:10.925Z,6.60
2019-04-30T00:06:39.429Z,6.83
2019-04-30T00:09:09.726Z,10.90
2019-04-30T00:11:36.357Z,6.23
2019-04-30T00:14:05.653Z,4.17
2019-04-30T00:16:36.302Z,4.87
2019-04-30T00:19:01.821Z,5.50
2019-04-30T00:21:28.992Z,6.20
2019-04-30T00:23:56.249Z,4.60
2019-04-30T00:26:25.341Z,4.20
2019-04-30T00:28:52.926Z,6.83
2019-04-30T00:31:23.809Z,10.03
2019-04-30T00:33:52.641Z,12.33
2019-04-30T00:36:18.423Z,7.80
2019-04-30T00:38:45.579Z,9.77
2019-04-30T00:41:12.758Z,6.40
2019-04-30T00:43:46.604Z,5.73
2019-04-30T00:46:08.832Z,8.10
2019-04-30T00:48:36.022Z,8.87
2019-04-30T00:51:07.447Z,4.90
2019-04-30T00:53:32.108Z,6.97
2019-04-30T00:55:59.266Z,12.10
2019-04-30T00:58:30.184Z,6.20
2019-04-30T01:01:15.229Z,5.47
2019-04-30T01:03:49.357Z,8.37
2019-04-30T01:06:17.143Z,5.93
2019-04-30T01:08:42.089Z,7.63
2019-04-30T01:11:09.624Z,5.70
2019-04-30T01:13:38.894Z,4.40
2019-04-30T01:16:06.314Z,7.40
2019-04-30T01:18:33.489Z,3.87
2019-04-30T01:21:02.945Z,7.87
2019-04-30T01:23:29.656Z,4.53
2019-04-30T01:25:58.545Z,4.73
2019-04-30T01:28:26.186Z,6.50
2019-04-30T01:30:53.863Z,6.50
2019-04-30T01:33:22.278Z,5.60
2019-04-30T01:35:49.467Z,7.80
2019-04-30T01:38:16.637Z,7.23
2019-04-30T01:40:47.520Z,7.87
2019-04-30T01:43:12.705Z,4.83
2019-04-30T01:45:39.886Z,9.53
2019-04-30T01:48:10.721Z,9.13
2019-04-30T01:50:38.738Z,5.23
2019-04-30T01:53:08.870Z,5.20
2019-04-30T01:55:35.373Z,4.23
2019-04-30T01:58:04.214Z,8.83
2019-04-30T02:00:35.718Z,7.27
2019-04-30T02:03:02.886Z,4.40
2019-04-30T02:05:30.067Z,14.37
2019-04-30T02:07:58.537Z,5.77
2019-04-30T02:10:26.090Z,6.17
2019-04-30T02:12:53.273Z,6.87
2019-04-30T02:15:20.434Z,4.63
2019-04-30T02:17:50.264Z,6.67
2019-04-30T02:20:16.534Z,6.87
2019-04-30T02:22:43.702Z,7.87
2019-04-30T02:25:10.874Z,8.67
2019-04-30T02:27:39.035Z,3.80
2019-04-30T02:30:10.774Z,4.53
2019-04-30T02:32:36.570Z,8.37
2019-04-30T02:35:15.414Z,6.40
2019-04-30T02:38:00.419Z,8.87
2019-04-30T02:40:30.017Z,10.40
2019-04-30T02:42:58.981Z,8.13
2019-04-30T02:45:25.383Z,4.83
2019-04-30T02:47:52.558Z,9.97
2019-04-30T02:50:22.537Z,7.70
2019-04-30T02:52:50.426Z,6.57
2019-04-30T02:55:19.511Z,8.77
2019-04-30T02:57:49.717Z,4.97
2019-04-30T03:00:20.359Z,6.83
2019-04-30T03:02:46.532Z,6.73
2019-04-30T03:05:14.091Z,7.27
2019-04-30T03:07:41.883Z,8.97
2019-04-30T03:10:10.034Z,4.13
2019-04-30T03:12:40.256Z,4.53
2019-04-30T03:15:06.487Z,5.63
2019-04-30T03:17:35.359Z,7.57
2019-04-30T03:20:27.824Z,5.70
2019-04-30T03:22:41.905Z,5.30
2019-04-30T03:25:09.506Z,3.20
2019-04-30T03:27:37.019Z,9.83
2019-04-30T03:30:05.824Z,5.43
2019-04-30T03:32:36.745Z,9.20
2019-04-30T03:35:03.398Z,4.27
2019-04-30T03:37:30.945Z,6.77
2019-04-30T03:40:00.484Z,7.23
2019-04-30T03:42:29.528Z,7.40
2019-04-30T03:44:59.085Z,5.03
2019-04-30T03:47:25.562Z,5.53
2019-04-30T03:49:52.735Z,4.77
2019-04-30T03:52:20.876Z,4.33
2019-04-30T03:54:49.488Z,3.87
2019-04-30T03:57:16.931Z,5.57
2019-04-30T03:59:44.111Z,5.60
2019-04-30T04:02:13.137Z,5.57
2019-04-30T04:04:52.167Z,7.13
2019-04-30T04:07:20.380Z,6.03
2019-04-30T04:09:59.779Z,7.70
2019-04-30T04:12:30.386Z,5.73
2019-04-30T04:15:03.294Z,8.57
2019-04-30T04:17:26.265Z,7.10
2019-04-30T04:19:53.455Z,5.33
2019-04-30T04:22:20.918Z,5.03
2019-04-30T04:24:50.388Z,7.33
2019-04-30T04:27:19.376Z,6.33
2019-04-30T04:29:46.759Z,4.47
2019-04-30T04:32:13.918Z,3.77
2019-04-30T04:34:41.094Z,6.37
2019-04-30T04:37:10.119Z,8.33
2019-04-30T04:39:38.914Z,6.77
2019-04-30T04:42:06.066Z,7.90
2019-04-30T04:44:33.250Z,6.57
2019-04-30T04:47:00.422Z,13.47
2019-04-30T04:49:30.320Z,8.30
2019-04-30T04:51:59.046Z,7.10
2019-04-30T04:54:25.374Z,5.90
2019-04-30T04:56:54.872Z,4.90
2019-04-30T04:59:21.483Z,6.40
2019-04-30T05:01:49.055Z,5.23
2019-04-30T05:04:19.708Z,7.67
2019-04-30T05:06:45.894Z,5.90
2019-04-30T05:09:13.062Z,5.93
2019-04-30T05:11:40.254Z,7.57
2019-04-30T05:14:08.385Z,5.43
2019-04-30T05:16:36.366Z,7.03
2019-04-30T05:19:03.546Z,7.43
2019-04-30T05:21:42.057Z,7.53
2019-04-30T05:23:59.614Z,6.13
2019-04-30T05:26:28.574Z,9.87
2019-04-30T05:28:55.675Z,8.60
2019-04-30T05:31:22.843Z,8.03
2019-04-30T05:33:50.030Z,6.63
2019-04-30T05:36:19.204Z,4.27
2019-04-30T05:38:46.516Z,6.10
2019-04-30T05:41:13.707Z,5.20
2019-04-30T05:43:40.870Z,8.47
2019-04-30T05:46:08.344Z,6.00
2019-04-30T05:48:36.962Z,8.17
2019-04-30T05:51:04.193Z,3.83
2019-04-30T05:53:31.360Z,9.37
2019-04-30T05:55:59.368Z,6.93
2019-04-30T05:58:26.674Z,6.80
2019-04-30T06:00:53.860Z,5.80
2019-04-30T06:03:29.707Z,11.00
2019-04-30T06:05:49.954Z,5.87
2019-04-30T06:08:19.245Z,4.07
2019-04-30T06:11:04.250Z,7.13
2019-04-30T06:13:40.378Z,6.30
2019-04-30T06:16:12.499Z,5.27
2019-04-30T06:18:42.167Z,2.90
2019-04-30T06:21:09.158Z,4.93
2019-04-30T06:23:36.710Z,6.30
2019-04-30T06:26:09.731Z,7.17
2019-04-30T06:28:32.855Z,4.83
2019-04-30T06:31:00.042Z,6.73
2019-04-30T06:33:29.003Z,3.43
2019-04-30T06:35:56.298Z,3.43
2019-04-30T06:38:23.475Z,5.57
2019-04-30T06:40:50.638Z,5.27
2019-04-30T06:43:19.080Z,7.33
2019-04-30T06:45:50.915Z,8.67
2019-04-30T06:48:17.281Z,4.30
2019-04-30T06:50:44.445Z,7.37
2019-04-30T06:53:11.632Z,5.00
2019-04-30T06:55:39.375Z,7.83
2019-04-30T06:58:14.206Z,2.97
2019-04-30T07:00:37.058Z,4.67
2019-04-30T07:03:04.502Z,3.80
2019-04-30T07:05:31.663Z,9.07
2019-04-30T07:08:16.741Z,3.03
2019-04-30T07:10:53.053Z,5.73
2019-04-30T07:13:14.446Z,3.37
2019-04-30T07:15:41.620Z,6.90
2019-04-30T07:18:09.130Z,2.97
2019-04-30T07:20:38.700Z,4.57
2019-04-30T07:23:05.746Z,5.90
2019-04-30T07:25:32.915Z,12.10
2019-04-30T07:28:00.130Z,5.13
2019-04-30T07:30:30.697Z,4.83
2019-04-30T07:32:56.244Z,5.77
2019-04-30T07:35:23.988Z,5.17
2019-04-30T07:37:54.553Z,3.37
2019-04-30T07:40:20.150Z,5.53
2019-04-30T07:42:49.221Z,3.37
2019-04-30T07:45:16.644Z,5.60
2019-04-30T07:47:43.818Z,4.33
2019-04-30T07:50:11.290Z,4.33
2019-04-30T07:52:57.728Z,3.77
2019-04-30T07:55:09.643Z,9.37
2019-04-30T07:57:36.530Z,4.90
2019-04-30T08:00:04.674Z,2.93
2019-04-30T08:02:37.971Z,5.20
2019-04-30T08:05:06.744Z,6.37
2019-04-30T08:07:33.936Z,4.87
2019-04-30T08:10:01.571Z,6.90
2019-04-30T08:12:33.650Z,3.77
2019-04-30T08:14:59.491Z,3.57
2019-04-30T08:17:28.863Z,1.80
2019-04-30T08:19:56.049Z,6.33
2019-04-30T08:22:23.226Z,4.17
2019-04-30T08:24:50.401Z,6.87
2019-04-30T08:27:19.174Z,7.10
2019-04-30T08:29:49.416Z,5.90
2019-04-30T08:32:16.269Z,3.63
2019-04-30T08:34:43.446Z,5.43
2019-04-30T08:37:17.006Z,3.07
2019-04-30T08:39:39.769Z,4.30
2019-04-30T08:42:08.996Z,2.83
2019-04-30T08:44:36.634Z,3.53
2019-04-30T08:47:03.810Z,3.13
2019-04-30T08:49:31.341Z,2.20
2019-04-30T08:51:59.043Z,2.10
2019-04-30T08:54:26.222Z,2.93
2019-04-30T08:56:53.430Z,4.80
2019-04-30T08:59:20.662Z,3.10
2019-04-30T09:01:48.737Z,2.43
2019-04-30T09:04:16.242Z,1.73
2019-04-30T09:06:43.414Z,5.37
2019-04-30T09:09:12.235Z,3.97
2019-04-30T09:11:52.940Z,2.67
2019-04-30T09:14:14.502Z,3.17
2019-04-30T09:16:41.726Z,6.80
2019-04-30T09:19:09.756Z,3.13
2019-04-30T09:21:39.965Z,4.47
2019-04-30T09:24:06.367Z,2.40
2019-04-30T09:26:33.560Z,3.53
2019-04-30T09:29:00.749Z,3.53
2019-04-30T09:31:29.617Z,2.40
2019-04-30T09:33:58.819Z,2.93
2019-04-30T09:36:25.727Z,3.13
2019-04-30T09:38:52.885Z,1.90
2019-04-30T09:41:20.103Z,2.97
2019-04-30T09:43:49.267Z,2.00
2019-04-30T09:46:24.623Z,3.97
2019-04-30T09:48:45.237Z,3.00
2019-04-30T09:51:12.812Z,2.63
2019-04-30T09:53:41.243Z,6.17
2019-04-30T09:56:09.649Z,2.87
2019-04-30T09:58:39.253Z,6.30
2019-04-30T10:01:06.630Z,4.60
2019-04-30T10:03:34.913Z,3.80
2019-04-30T10:06:02.764Z,10.37
2019-04-30T10:08:30.890Z,3.90
2019-04-30T10:11:00.519Z,4.17
2019-04-30T10:13:27.685Z,6.93
2019-04-30T10:15:58.437Z,2.40
2019-04-30T10:18:25.390Z,5.27
2019-04-30T10:20:52.672Z,3.57
2019-04-30T10:23:19.862Z,3.53
2019-04-30T10:25:47.057Z,6.03
2019-04-30T10:28:14.259Z,3.10
2019-04-30T10:30:41.430Z,2.10
2019-04-30T10:33:09.983Z,8.77
2019-04-30T10:35:38.537Z,2.80
2019-04-30T10:38:06.618Z,3.37
2019-04-30T10:40:33.826Z,3.47
2019-04-30T10:43:01.806Z,3.20
2019-04-30T10:45:28.985Z,3.33
2019-04-30T10:47:56.146Z,2.63
2019-04-30T10:50:24.190Z,4.47
2019-04-30T10:52:51.367Z,3.67
2019-04-30T10:55:18.558Z,3.90
2019-04-30T10:57:45.733Z,4.37
2019-04-30T11:00:13.208Z,7.80
2019-04-30T11:02:40.428Z,3.83
2019-04-30T11:05:07.586Z,2.90
2019-04-30T11:07:34.770Z,7.10
2019-04-30T11:10:01.928Z,6.90
2019-04-30T11:12:29.309Z,3.47
2019-04-30T11:14:56.844Z,2.93
2019-04-30T11:17:24.209Z,3.27
2019-04-30T11:19:51.890Z,2.37
2019-04-30T11:22:20.149Z,3.57
2019-04-30T11:24:58.421Z,3.03
2019-04-30T11:27:16.979Z,2.40
2019-04-30T11:29:45.142Z,3.37
2019-04-30T11:32:14.535Z,3.93
2019-04-30T11:34:42.446Z,2.90
2019-04-30T11:37:09.609Z,8.13
2019-04-30T11:39:36.794Z,3.00
2019-04-30T11:42:03.973Z,3.37
2019-04-30T11:44:31.636Z,4.47
2019-04-30T11:47:01.316Z,5.70
2019-04-30T11:49:28.494Z,1.90
2019-04-30T11:51:56.123Z,2.90
2019-04-30T11:54:23.298Z,2.33
2019-04-30T11:56:50.587Z,5.67
2019-04-30T11:59:19.572Z,3.23
2019-04-30T12:01:48.062Z,2.17
2019-04-30T12:04:15.260Z,4.63
2019-04-30T12:06:42.423Z,3.00
2019-04-30T12:09:11.243Z,3.50
2019-04-30T12:11:46.142Z,3.30
2019-04-30T12:14:13.318Z,3.10
2019-04-30T12:16:40.482Z,5.57
2019-04-30T12:19:09.025Z,2.83
2019-04-30T12:21:36.418Z,2.87
2019-04-30T12:24:03.664Z,4.40
2019-04-30T12:26:30.841Z,2.83
2019-04-30T12:28:58.006Z,5.23
2019-04-30T12:31:25.182Z,8.37
2019-04-30T12:33:52.374Z,2.83
2019-04-30T12:36:19.545Z,4.20
2019-04-30T12:38:46.723Z,3.43
2019-04-30T12:41:13.898Z,4.80
2019-04-30T12:43:41.067Z,2.43
2019-04-30T12:46:08.271Z,5.07
2019-04-30T12:48:52.046Z,5.00
2019-04-30T12:51:20.853Z,3.73
2019-04-30T12:53:49.674Z,3.83
2019-04-30T12:56:27.130Z,3.27
2019-04-30T12:58:53.333Z,3.23
2019-04-30T13:01:20.490Z,4.57
2019-04-30T13:03:58.031Z,3.83
2019-04-30T13:06:16.880Z,2.93
2019-04-30T13:08:45.582Z,2.50
2019-04-30T13:11:13.841Z,6.43
2019-04-30T13:13:42.288Z,4.87
2019-04-30T13:16:10.275Z,7.27
2019-04-30T13:18:39.304Z,3.17
2019-04-30T13:21:06.352Z,5.27
2019-04-30T13:23:33.560Z,3.60
2019-04-30T13:26:01.090Z,3.23
2019-04-30T13:28:46.487Z,5.53
2019-04-30T13:31:14.370Z,1.97
2019-04-30T13:33:43.424Z,2.60
2019-04-30T13:36:10.817Z,8.77
2019-04-30T13:38:49.123Z,3.00
2019-04-30T13:41:12.574Z,3.70
2019-04-30T13:43:53.233Z,6.23
2019-04-30T13:46:20.419Z,3.33
2019-04-30T13:48:47.597Z,4.77
2019-04-30T13:51:14.763Z,7.97
2019-04-30T13:53:41.937Z,5.83
2019-04-30T13:56:09.114Z,8.13
2019-04-30T13:58:36.310Z,6.97
2019-04-30T14:01:04.642Z,2.73
2019-04-30T14:03:33.469Z,4.03
2019-04-30T14:06:01.207Z,5.07
2019-04-30T14:08:30.013Z,6.07
2019-04-30T14:10:59.073Z,3.77
2019-04-30T14:13:26.862Z,6.07
2019-04-30T14:15:54.059Z,2.90
2019-04-30T14:18:28.333Z,4.40
2019-04-30T14:20:50.126Z,5.80
2019-04-30T14:23:18.590Z,8.63
2019-04-30T14:25:55.957Z,2.97
2019-04-30T14:28:15.080Z,6.00
2019-04-30T14:30:42.246Z,4.50
2019-04-30T14:33:09.603Z,6.57
2019-04-30T14:35:38.491Z,4.57
2019-04-30T14:38:05.934Z,2.50
2019-04-30T14:40:33.483Z,13.63
2019-04-30T14:43:03.504Z,4.13
2019-04-30T14:45:36.539Z,6.33
2019-04-30T14:48:07.395Z,6.90
2019-04-30T14:50:38.444Z,5.90
2019-04-30T14:53:23.452Z,3.70
2019-04-30T14:56:11.471Z,4.10
2019-04-30T14:58:47.927Z,2.40
2019-04-30T15:01:19.696Z,5.57
2019-04-30T15:03:46.846Z,3.50
2019-04-30T15:06:14.043Z,2.33
2019-04-30T15:08:41.213Z,2.57
2019-04-30T15:11:09.064Z,4.63
2019-04-30T15:13:36.660Z,4.17
2019-04-30T15:16:03.902Z,5.83
2019-04-30T15:18:31.106Z,2.90
2019-04-30T15:20:59.447Z,3.33
2019-04-30T15:23:45.391Z,3.77
2019-04-30T15:26:22.208Z,8.23
2019-04-30T15:28:41.579Z,5.23
2019-04-30T15:31:09.398Z,4.40
2019-04-30T15:33:38.198Z,5.20
2019-04-30T15:36:06.362Z,2.97
2019-04-30T15:38:44.287Z,3.83
2019-04-30T15:41:11.458Z,2.47
2019-04-30T15:43:38.654Z,3.90
2019-04-30T15:46:05.815Z,6.73
2019-04-30T15:48:33.008Z,2.37
2019-04-30T15:51:00.170Z,2.37
2019-04-30T15:53:27.350Z,4.40
2019-04-30T15:55:54.530Z,2.60
2019-04-30T15:58:23.338Z,2.77
2019-04-30T16:00:50.518Z,3.97
2019-04-30T16:03:19.366Z,3.10
2019-04-30T16:05:48.222Z,2.53
2019-04-30T16:08:23.120Z,4.57
2019-04-30T16:10:51.929Z,2.13
2019-04-30T16:13:23.401Z,7.83
2019-04-30T16:15:50.568Z,2.83
2019-04-30T16:18:19.460Z,4.93
2019-04-30T16:20:46.614Z,2.07
2019-04-30T16:23:13.802Z,2.03
2019-04-30T16:25:40.973Z,5.73
2019-04-30T16:28:08.526Z,7.77
2019-04-30T16:30:37.039Z,3.17
2019-04-30T16:33:04.199Z,4.90
2019-04-30T16:35:31.378Z,5.67
2019-04-30T16:37:59.395Z,8.33
2019-04-30T16:40:28.868Z,7.27
2019-04-30T16:42:55.716Z,4.27
2019-04-30T16:45:22.890Z,3.90
2019-04-30T16:47:50.074Z,8.80
2019-04-30T16:50:18.829Z,4.90
2019-04-30T16:52:46.149Z,2.40
2019-04-30T16:55:13.317Z,4.03
2019-04-30T16:57:41.063Z,3.73
2019-04-30T17:00:09.343Z,6.83
2019-04-30T17:02:39.292Z,4.93
2019-04-30T17:05:19.474Z,6.00
2019-04-30T17:08:03.919Z,3.90
2019-04-30T17:10:32.733Z,6.73
2019-04-30T17:13:09.094Z,2.50
2019-04-30T17:15:37.473Z,2.50
2019-04-30T17:18:04.659Z,2.03
2019-04-30T17:20:31.899Z,2.60
2019-04-30T17:22:59.546Z,2.53
2019-04-30T17:25:26.923Z,3.57
2019-04-30T17:27:54.093Z,4.23
2019-04-30T17:30:21.271Z,3.73
2019-04-30T17:32:49.875Z,5.20
2019-04-30T17:35:19.066Z,2.10
2019-04-30T17:37:46.407Z,7.93
2019-04-30T17:40:13.592Z,2.60
2019-04-30T17:42:40.781Z,3.23
2019-04-30T17:45:09.629Z,5.00
2019-04-30T17:47:37.254Z,3.93
2019-04-30T17:50:04.986Z,2.13
2019-04-30T17:52:32.194Z,5.27
2019-04-30T17:54:59.540Z,3.73
2019-04-30T17:57:32.293Z,4.33
2019-04-30T17:59:55.986Z,4.70
2019-04-30T18:02:24.801Z,2.77
2019-04-30T18:04:51.969Z,3.07
2019-04-30T18:07:19.796Z,3.93
2019-04-30T18:09:48.785Z,3.60
2019-04-30T18:12:16.780Z,2.00
2019-04-30T18:14:43.971Z,5.17
2019-04-30T18:17:11.142Z,4.33
2019-04-30T18:19:56.118Z,3.77
2019-04-30T18:22:29.355Z,2.07
2019-04-30T18:25:01.070Z,2.70
2019-04-30T18:27:42.402Z,3.23
2019-04-30T18:29:58.802Z,3.73
2019-04-30T18:32:29.492Z,4.77
2019-04-30T18:34:56.543Z,3.60
2019-04-30T18:37:23.732Z,3.40
2019-04-30T18:39:50.902Z,3.83
2019-04-30T18:42:19.333Z,9.07
2019-04-30T18:44:46.977Z,4.17
2019-04-30T18:47:14.252Z,3.20
2019-04-30T18:49:41.427Z,5.77
2019-04-30T18:52:09.102Z,7.80
2019-04-30T18:54:37.055Z,3.53
2019-04-30T18:57:04.263Z,8.20
2019-04-30T18:59:32.737Z,5.67
2019-04-30T19:02:00.293Z,6.23
2019-04-30T19:04:28.805Z,5.90
2019-04-30T19:06:58.009Z,5.37
2019-04-30T19:09:29.848Z,4.73
2019-04-30T19:11:59.326Z,4.13
2019-04-30T19:14:44.446Z,5.33
2019-04-30T19:17:29.580Z,6.27
2019-04-30T19:19:59.282Z,3.60
2019-04-30T19:22:28.553Z,4.37
2019-04-30T19:24:58.558Z,4.43
2019-04-30T19:27:24.361Z,6.60
2019-04-30T19:29:51.768Z,3.77
2019-04-30T19:32:19.713Z,4.17
2019-04-30T19:34:48.899Z,7.47
2019-04-30T19:37:15.794Z,4.80
2019-04-30T19:39:43.022Z,5.83
2019-04-30T19:42:10.219Z,6.30
2019-04-30T19:44:39.277Z,11.00
2019-04-30T19:47:06.273Z,6.63
2019-04-30T19:49:33.477Z,4.70
2019-04-30T19:52:08.582Z,5.53
2019-04-30T19:54:30.012Z,4.83
2019-04-30T19:56:58.592Z,5.77
2019-04-30T19:59:26.095Z,6.60
2019-04-30T20:01:53.289Z,5.23
2019-04-30T20:04:32.416Z,9.03
2019-04-30T20:06:49.391Z,6.60
2019-04-30T20:09:16.639Z,5.37
2019-04-30T20:11:43.808Z,6.73
2019-04-30T20:14:10.974Z,9.17
2019-04-30T20:16:40.081Z,7.43
2019-04-30T20:19:09.135Z,7.60
2019-04-30T20:21:48.187Z,6.97
2019-04-30T20:24:04.977Z,6.27
2019-04-30T20:26:32.974Z,6.77
2019-04-30T20:29:00.159Z,6.03
2019-04-30T20:31:28.768Z,6.33
2019-04-30T20:33:56.819Z,7.03
2019-04-30T20:36:23.997Z,7.07
2019-04-30T20:39:01.703Z,7.23
2019-04-30T20:41:30.134Z,4.73
2019-04-30T20:43:57.326Z,5.07
2019-04-30T20:46:34.644Z,7.07
2019-04-30T20:48:53.395Z,8.80
2019-04-30T20:51:23.310Z,5.30
2019-04-30T20:53:50.500Z,10.43
2019-04-30T20:56:19.105Z,10.47
2019-04-30T20:58:57.146Z,11.63
2019-04-30T21:01:15.487Z,9.77
2019-04-30T21:03:42.668Z,9.20
2019-04-30T21:06:09.844Z,9.17
2019-04-30T21:08:37.257Z,12.63
2019-04-30T21:11:04.454Z,10.87
2019-04-30T21:13:31.629Z,10.73
2019-04-30T21:15:59.494Z,9.17
2019-04-30T21:18:30.403Z,9.93
2019-04-30T21:20:56.268Z,10.57
2019-04-30T21:23:23.443Z,9.17
2019-04-30T21:25:50.638Z,8.40
2019-04-30T21:28:19.705Z,9.73
2019-04-30T21:30:46.735Z,14.73
2019-04-30T21:33:15.611Z,11.00
2019-04-30T21:35:44.506Z,14.70
2019-04-30T21:38:11.765Z,15.53
2019-04-30T21:40:39.437Z,15.53
2019-04-30T21:43:07.096Z,21.47
2019-04-30T21:45:34.276Z,18.53
2019-04-30T21:48:01.653Z,16.90
2019-04-30T21:50:29.733Z,19.10
2019-04-30T21:52:59.294Z,19.13
2019-04-30T21:55:26.595Z,14.63
2019-04-30T21:57:53.771Z,18.90
2019-04-30T22:00:22.578Z,20.43
2019-04-30T22:02:50.094Z,18.73
2019-04-30T22:05:17.419Z,20.00
2019-04-30T22:07:44.629Z,21.30
2019-04-30T22:10:11.832Z,21.20
2019-04-30T22:12:39.008Z,20.83
2019-04-30T22:15:06.740Z,21.37
2019-04-30T22:17:33.934Z,19.13
2019-04-30T22:20:01.121Z,20.53
2019-04-30T22:22:29.200Z,18.70
2019-04-30T22:24:57.072Z,20.97
2019-04-30T22:27:24.238Z,18.17
2019-04-30T22:29:51.424Z,16.70
2019-04-30T22:32:18.610Z,18.07
2019-04-30T22:34:45.790Z,21.83
2019-04-30T22:37:12.969Z,24.20
2019-04-30T22:39:41.801Z,17.70
2019-04-30T22:42:19.384Z,13.80
2019-04-30T22:44:46.558Z,15.90
2019-04-30T22:47:13.766Z,18.13
2019-04-30T22:49:40.955Z,16.20
2019-04-30T22:52:08.141Z,17.43
2019-04-30T22:54:35.336Z,19.40
2019-04-30T22:57:02.538Z,17.20
2019-04-30T22:59:29.741Z,34.53
2019-04-30T23:02:01.237Z,42.23
2019-04-30T23:04:38.742Z,17.83
2019-04-30T23:07:05.914Z,13.83
2019-04-30T23:09:33.074Z,11.20
2019-04-30T23:12:00.271Z,18.47
2019-04-30T23:14:27.507Z,20.97
2019-04-30T23:16:54.687Z,17.80
2019-04-30T23:19:21.889Z,10.93
2019-04-30T23:21:49.046Z,9.17
2019-04-30T23:24:16.242Z,10.70
2019-04-30T23:26:43.460Z,10.97
2019-04-30T23:29:10.618Z,8.17
2019-04-30T23:31:37.790Z,10.37
2019-04-30T23:34:16.908Z,11.23
2019-04-30T23:36:33.862Z,11.90
2019-04-30T23:39:01.058Z,9.37
2019-04-30T23:41:28.253Z,10.53
2019-04-30T23:43:55.507Z,10.87
2019-04-30T23:46:22.685Z,10.70
2019-04-30T23:48:49.862Z,8.97
2019-04-30T23:51:17.038Z,8.77
2019-04-30T23:53:44.234Z,8.30
2019-04-30T23:56:11.426Z,9.13
2019-04-30T23:58:38.614Z,11.57
